createdAt,value
2023-03-14T00:01:10.984Z,20.48
2023-03-14T00:03:37.313Z,20.48
2023-03-14T00:06:04.175Z,20.47
2023-03-14T00:08:30.497Z,20.47
2023-03-14T00:10:58.589Z,20.47
2023-03-14T00:13:25.204Z,20.47
2023-03-14T00:15:51.556Z,20.45
2023-03-14T00:18:17.912Z,20.46
2023-03-14T00:20:44.240Z,20.45
2023-03-14T00:23:10.552Z,20.44
2023-03-14T00:25:36.890Z,20.45
2023-03-14T00:28:03.202Z,20.44
2023-03-14T00:30:29.536Z,20.44
2023-03-14T00:32:55.914Z,20.43
2023-03-14T00:35:22.899Z,20.43
2023-03-14T00:37:49.232Z,20.43
2023-03-14T00:40:15.615Z,20.43
2023-03-14T00:42:41.937Z,20.43
2023-03-14T00:45:09.774Z,20.42
2023-03-14T00:47:36.104Z,20.42
2023-03-14T00:50:02.497Z,20.42
2023-03-14T00:52:28.896Z,20.41
2023-03-14T00:54:55.252Z,20.40
2023-03-14T00:57:21.572Z,20.40
2023-03-14T00:59:47.946Z,20.40
2023-03-14T01:02:14.323Z,20.39
2023-03-14T01:04:40.749Z,20.39
2023-03-14T01:07:07.080Z,20.39
2023-03-14T01:09:33.475Z,20.38
2023-03-14T01:11:59.848Z,20.39
2023-03-14T01:14:26.404Z,20.39
2023-03-14T01:16:52.760Z,20.38
2023-03-14T01:19:20.065Z,20.38
2023-03-14T01:21:46.394Z,20.38
2023-03-14T01:24:13.040Z,20.36
2023-03-14T01:26:39.904Z,20.36
2023-03-14T01:29:08.055Z,20.36
2023-03-14T01:31:37.004Z,20.35
2023-03-14T01:34:03.384Z,20.35
2023-03-14T01:36:31.702Z,20.35
2023-03-14T01:38:59.544Z,20.34
2023-03-14T01:41:26.357Z,20.33
2023-03-14T01:43:54.412Z,20.34
2023-03-14T01:46:34.077Z,20.33
2023-03-14T01:49:08.136Z,20.32
2023-03-14T01:51:36.682Z,20.33
2023-03-14T01:54:05.443Z,20.33
2023-03-14T01:56:31.848Z,20.32
2023-03-14T01:58:58.640Z,20.30
2023-03-14T02:01:25.474Z,20.30
2023-03-14T02:03:53.879Z,20.31
2023-03-14T02:06:21.055Z,20.29
2023-03-14T02:08:50.407Z,20.29
2023-03-14T02:11:20.740Z,20.29
2023-03-14T02:14:32.675Z,20.27
2023-03-14T02:17:18.890Z,20.28
2023-03-14T02:20:14.863Z,20.28
2023-03-14T02:22:43.582Z,20.27
2023-03-14T02:25:22.932Z,20.27
2023-03-14T02:27:49.556Z,20.28
2023-03-14T02:30:17.208Z,20.27
2023-03-14T02:32:47.300Z,20.27
2023-03-14T02:35:15.516Z,20.27
2023-03-14T02:37:43.505Z,20.26
2023-03-14T02:40:10.773Z,20.26
2023-03-14T02:42:38.641Z,20.24
2023-03-14T02:45:10.729Z,20.26
2023-03-14T02:47:43.374Z,20.25
2023-03-14T02:50:10.792Z,20.24
2023-03-14T02:52:37.175Z,20.23
2023-03-14T02:55:04.432Z,20.24
2023-03-14T02:57:31.928Z,20.24
2023-03-14T03:00:01.379Z,20.25
2023-03-14T03:02:32.074Z,20.23
2023-03-14T03:04:58.973Z,20.22
2023-03-14T03:07:25.333Z,20.22
2023-03-14T03:09:54.655Z,20.23
2023-03-14T03:12:20.982Z,20.23
2023-03-14T03:14:47.387Z,20.23
2023-03-14T03:17:15.134Z,20.22
2023-03-14T03:19:41.516Z,20.21
2023-03-14T03:22:10.014Z,20.21
2023-03-14T03:24:36.340Z,20.22
2023-03-14T03:27:02.679Z,20.21
2023-03-14T03:29:29.119Z,20.20
2023-03-14T03:31:55.622Z,20.19
2023-03-14T03:34:21.972Z,20.20
2023-03-14T03:36:51.376Z,20.19
2023-03-14T03:39:17.802Z,20.19
2023-03-14T03:41:47.270Z,20.19
2023-03-14T03:44:14.463Z,20.18
2023-03-14T03:46:41.115Z,20.20
2023-03-14T03:49:08.500Z,20.20
2023-03-14T03:51:34.866Z,20.22
2023-03-14T03:54:01.392Z,20.27
2023-03-14T03:56:33.212Z,20.27
2023-03-14T03:59:00.139Z,20.28
2023-03-14T04:01:26.490Z,20.31
2023-03-14T04:03:55.884Z,20.32
2023-03-14T04:06:22.380Z,20.30
2023-03-14T04:08:50.295Z,20.31
2023-03-14T04:11:39.804Z,20.32
2023-03-14T04:14:20.974Z,20.32
2023-03-14T04:16:49.279Z,20.31
2023-03-14T04:19:18.960Z,20.35
2023-03-14T04:21:47.854Z,20.36
2023-03-14T04:24:14.182Z,20.35
2023-03-14T04:26:42.267Z,20.36
2023-03-14T04:29:12.225Z,20.35
2023-03-14T04:31:40.250Z,20.34
2023-03-14T04:34:06.597Z,20.34
2023-03-14T04:36:39.704Z,20.34
2023-03-14T04:39:09.523Z,20.33
2023-03-14T04:41:39.438Z,20.32
2023-03-14T04:44:06.434Z,20.31
2023-03-14T04:46:34.021Z,20.31
2023-03-14T04:49:03.603Z,20.29
2023-03-14T04:51:30.067Z,20.30
2023-03-14T04:53:56.470Z,20.29
2023-03-14T04:56:23.149Z,20.30
2023-03-14T04:58:49.508Z,20.29
2023-03-14T05:01:18.723Z,20.28
2023-03-14T05:04:03.962Z,20.28
2023-03-14T05:06:44.185Z,20.28
2023-03-14T05:09:42.819Z,20.27
2023-03-14T05:12:27.927Z,20.27
2023-03-14T05:14:59.734Z,20.26
2023-03-14T05:17:40.228Z,20.26
2023-03-14T05:20:24.022Z,20.25
2023-03-14T05:22:56.639Z,20.25
2023-03-14T05:25:43.519Z,20.25
2023-03-14T05:28:17.708Z,20.24
2023-03-14T05:30:51.756Z,20.24
2023-03-14T05:33:41.251Z,20.23
2023-03-14T05:36:14.191Z,20.23
2023-03-14T05:38:54.712Z,20.23
2023-03-14T05:41:32.291Z,20.23
2023-03-14T05:44:21.556Z,20.22
2023-03-14T05:47:06.650Z,20.23
2023-03-14T05:49:49.579Z,20.22
2023-03-14T05:52:34.639Z,20.22
2023-03-14T05:55:16.696Z,20.21
2023-03-14T05:57:54.256Z,20.20
2023-03-14T06:00:35.200Z,20.20
2023-03-14T06:03:14.454Z,20.22
2023-03-14T06:05:44.750Z,20.24
2023-03-14T06:08:11.261Z,20.26
2023-03-14T06:10:38.443Z,20.00
2023-03-14T06:13:04.776Z,19.93
2023-03-14T06:15:33.957Z,20.07
2023-03-14T06:18:00.321Z,20.14
2023-03-14T06:20:27.400Z,20.24
2023-03-14T06:22:54.170Z,20.27
2023-03-14T06:25:20.523Z,20.39
2023-03-14T06:27:48.368Z,20.56
2023-03-14T06:30:15.916Z,20.59
2023-03-14T06:32:42.320Z,20.66
2023-03-14T06:35:11.902Z,20.51
2023-03-14T06:37:41.137Z,20.23
2023-03-14T06:40:08.295Z,20.27
2023-03-14T06:42:49.693Z,20.32
2023-03-14T06:45:17.740Z,20.33
2023-03-14T06:47:44.288Z,20.36
2023-03-14T06:50:11.260Z,20.37
2023-03-14T06:52:38.240Z,20.32
2023-03-14T06:55:04.713Z,20.16
2023-03-14T06:57:31.476Z,19.88
2023-03-14T06:59:57.957Z,19.70
2023-03-14T07:02:35.995Z,19.47
2023-03-14T07:05:11.854Z,19.68
2023-03-14T07:07:38.340Z,19.60
2023-03-14T07:10:04.762Z,19.66
2023-03-14T07:12:31.140Z,19.74
2023-03-14T07:14:59.074Z,19.73
2023-03-14T07:17:29.687Z,19.89
2023-03-14T07:19:56.779Z,19.98
2023-03-14T07:22:23.900Z,20.06
2023-03-14T07:24:50.217Z,20.17
2023-03-14T07:27:16.608Z,20.13
2023-03-14T07:29:43.170Z,20.31
2023-03-14T07:32:09.524Z,20.32
2023-03-14T07:34:36.128Z,20.38
2023-03-14T07:37:02.477Z,20.43
2023-03-14T07:39:28.980Z,20.48
2023-03-14T07:42:01.574Z,20.56
2023-03-14T07:44:48.285Z,20.68
2023-03-14T07:47:14.608Z,20.55
2023-03-14T07:49:40.930Z,20.53
2023-03-14T07:52:07.405Z,20.71
2023-03-14T07:54:33.726Z,20.64
2023-03-14T07:57:01.627Z,20.51
2023-03-14T07:59:28.258Z,20.53
2023-03-14T08:01:54.579Z,20.53
2023-03-14T08:04:20.919Z,20.55
2023-03-14T08:06:47.257Z,20.55
2023-03-14T08:09:13.588Z,20.55
2023-03-14T08:11:39.925Z,20.54
2023-03-14T08:14:06.266Z,20.57
2023-03-14T08:16:32.684Z,20.55
2023-03-14T08:18:59.097Z,20.56
2023-03-14T08:21:25.421Z,20.54
2023-03-14T08:23:51.769Z,20.56
2023-03-14T08:26:18.080Z,20.55
2023-03-14T08:28:44.417Z,20.54
2023-03-14T08:31:10.973Z,20.55
2023-03-14T08:33:37.442Z,20.58
2023-03-14T08:36:03.851Z,20.55
2023-03-14T08:38:30.212Z,20.63
2023-03-14T08:40:57.549Z,20.70
2023-03-14T08:43:23.864Z,20.70
2023-03-14T08:45:50.198Z,20.68
2023-03-14T08:48:16.567Z,20.71
2023-03-14T08:50:42.896Z,20.77
2023-03-14T08:53:09.827Z,20.71
2023-03-14T08:55:36.224Z,20.82
2023-03-14T08:58:02.568Z,20.85
2023-03-14T09:00:28.908Z,20.78
2023-03-14T09:02:55.257Z,20.75
2023-03-14T09:05:21.608Z,20.66
2023-03-14T09:07:47.986Z,20.56
2023-03-14T09:10:14.323Z,20.65
2023-03-14T09:12:40.648Z,20.77
2023-03-14T09:15:07.270Z,20.61
2023-03-14T09:17:33.619Z,20.74
2023-03-14T09:20:00.706Z,20.88
2023-03-14T09:22:27.147Z,20.97
2023-03-14T09:24:53.479Z,21.05
2023-03-14T09:27:19.802Z,21.11
2023-03-14T09:29:46.145Z,20.98
2023-03-14T09:32:12.453Z,20.95
2023-03-14T09:34:38.852Z,20.95
2023-03-14T09:37:05.191Z,21.02
2023-03-14T09:39:31.504Z,21.26
2023-03-14T09:41:58.728Z,21.34
2023-03-14T09:44:25.827Z,21.32
2023-03-14T09:46:53.093Z,21.30
2023-03-14T09:49:23.086Z,21.22
2023-03-14T09:51:50.161Z,21.13
2023-03-14T09:54:43.001Z,21.14
2023-03-14T09:57:13.650Z,21.20
2023-03-14T09:59:39.991Z,21.42
2023-03-14T10:02:13.295Z,21.54
2023-03-14T10:04:42.466Z,21.67
2023-03-14T10:07:10.739Z,21.72
2023-03-14T10:09:37.856Z,21.77
2023-03-14T10:12:10.302Z,21.65
2023-03-14T10:14:37.448Z,21.42
2023-03-14T10:17:08.152Z,21.17
2023-03-14T10:19:36.569Z,21.02
2023-03-14T10:22:03.944Z,20.99
2023-03-14T10:24:31.095Z,21.08
2023-03-14T10:27:06.797Z,21.14
2023-03-14T10:29:33.758Z,21.09
2023-03-14T10:32:03.746Z,21.05
2023-03-14T10:34:36.642Z,21.04
2023-03-14T10:37:16.927Z,21.12
2023-03-14T10:39:46.458Z,21.08
2023-03-14T10:42:14.602Z,21.08
2023-03-14T10:44:41.021Z,21.11
2023-03-14T10:47:07.385Z,21.13
2023-03-14T10:49:34.627Z,21.11
2023-03-14T10:52:13.611Z,21.12
2023-03-14T10:54:39.963Z,20.96
2023-03-14T10:57:07.231Z,21.01
2023-03-14T10:59:35.885Z,20.99
2023-03-14T11:02:18.656Z,21.00
2023-03-14T11:05:05.517Z,21.06
2023-03-14T11:07:39.890Z,21.06
2023-03-14T11:10:25.001Z,21.10
2023-03-14T11:13:09.912Z,21.08
2023-03-14T11:15:41.840Z,21.10
2023-03-14T11:18:08.194Z,20.99
2023-03-14T11:20:45.682Z,21.01
2023-03-14T11:23:19.163Z,21.00
2023-03-14T11:25:51.685Z,20.99
2023-03-14T11:28:21.041Z,21.04
2023-03-14T11:30:51.128Z,20.89
2023-03-14T11:33:18.260Z,20.82
2023-03-14T11:36:03.479Z,20.85
2023-03-14T11:38:30.943Z,20.36
2023-03-14T11:40:58.022Z,20.50
2023-03-14T11:43:28.489Z,20.78
2023-03-14T11:46:38.314Z,21.06
2023-03-14T11:49:05.096Z,21.03
2023-03-14T11:51:35.457Z,20.49
2023-03-14T11:54:18.557Z,20.88
2023-03-14T11:56:50.185Z,21.14
2023-03-14T11:59:24.271Z,21.20
2023-03-14T12:01:52.981Z,21.25
2023-03-14T12:04:39.723Z,21.24
2023-03-14T12:07:09.727Z,21.30
2023-03-14T12:09:36.057Z,21.33
2023-03-14T12:12:03.177Z,21.33
2023-03-14T12:14:30.560Z,21.33
2023-03-14T12:16:58.249Z,21.34
2023-03-14T12:19:24.553Z,21.36
2023-03-14T12:22:01.779Z,21.34
2023-03-14T12:24:32.977Z,21.37
2023-03-14T12:27:00.379Z,21.42
2023-03-14T12:29:26.716Z,21.45
2023-03-14T12:32:01.851Z,21.44
2023-03-14T12:34:29.005Z,21.42
2023-03-14T12:36:57.102Z,21.46
2023-03-14T12:39:24.420Z,21.46
2023-03-14T12:41:54.347Z,21.49
2023-03-14T12:44:29.521Z,21.46
2023-03-14T12:46:57.690Z,21.48
2023-03-14T12:49:29.824Z,21.51
2023-03-14T12:51:59.902Z,21.54
2023-03-14T12:54:39.836Z,21.56
2023-03-14T12:57:09.153Z,21.56
2023-03-14T12:59:36.279Z,21.54
2023-03-14T13:02:09.636Z,21.57
2023-03-14T13:04:40.349Z,21.57
2023-03-14T13:07:11.263Z,21.57
2023-03-14T13:09:46.955Z,21.57
2023-03-14T13:12:14.405Z,21.58
2023-03-14T13:14:50.316Z,21.56
2023-03-14T13:17:34.119Z,21.57
2023-03-14T13:20:02.574Z,21.58
2023-03-14T13:22:29.682Z,21.60
2023-03-14T13:25:06.489Z,21.59
2023-03-14T13:27:33.265Z,21.58
2023-03-14T13:29:59.805Z,21.59
2023-03-14T13:32:29.807Z,21.58
2023-03-14T13:34:56.899Z,21.60
2023-03-14T13:37:23.832Z,21.59
2023-03-14T13:39:51.176Z,21.56
2023-03-14T13:42:17.515Z,21.56
2023-03-14T13:44:43.845Z,21.54
2023-03-14T13:47:17.209Z,21.56
2023-03-14T13:49:43.558Z,21.61
2023-03-14T13:52:28.674Z,21.58
2023-03-14T13:54:58.889Z,21.47
2023-03-14T13:57:25.251Z,21.38
2023-03-14T14:00:02.016Z,21.32
2023-03-14T14:02:31.058Z,21.33
2023-03-14T14:04:57.507Z,21.36
2023-03-14T14:07:23.850Z,21.36
2023-03-14T14:09:50.665Z,21.51
2023-03-14T14:12:22.588Z,21.51
2023-03-14T14:14:54.766Z,21.56
2023-03-14T14:17:23.149Z,21.64
2023-03-14T14:19:49.467Z,21.62
2023-03-14T14:22:15.790Z,21.62
2023-03-14T14:24:42.128Z,21.67
2023-03-14T14:27:15.378Z,21.67
2023-03-14T14:29:41.731Z,21.69
2023-03-14T14:32:07.980Z,21.77
2023-03-14T14:34:41.405Z,21.89
2023-03-14T14:37:22.786Z,21.88
2023-03-14T14:39:49.511Z,21.85
2023-03-14T14:42:17.052Z,21.84
2023-03-14T14:44:43.466Z,21.87
2023-03-14T14:47:12.798Z,21.87
2023-03-14T14:49:39.594Z,21.91
2023-03-14T14:52:15.620Z,21.89
2023-03-14T14:54:46.883Z,21.91
2023-03-14T14:57:20.335Z,22.03
2023-03-14T14:59:48.821Z,22.11
2023-03-14T15:02:33.599Z,22.06
2023-03-14T15:05:00.179Z,22.07
2023-03-14T15:07:28.224Z,22.05
2023-03-14T15:09:54.672Z,22.02
2023-03-14T15:12:21.689Z,22.04
2023-03-14T15:14:48.212Z,21.96
2023-03-14T15:17:15.132Z,21.97
2023-03-14T15:19:41.478Z,21.98
2023-03-14T15:22:12.783Z,21.86
2023-03-14T15:24:39.171Z,21.81
2023-03-14T15:27:06.314Z,21.82
2023-03-14T15:29:32.645Z,21.88
2023-03-14T15:31:59.237Z,21.93
2023-03-14T15:34:25.596Z,22.00
2023-03-14T15:36:52.002Z,22.02
2023-03-14T15:39:18.344Z,21.99
2023-03-14T15:41:44.676Z,21.95
2023-03-14T15:44:11.019Z,21.95
2023-03-14T15:46:37.356Z,21.99
2023-03-14T15:49:03.750Z,21.96
2023-03-14T15:51:30.118Z,21.63
2023-03-14T15:53:56.460Z,21.50
2023-03-14T15:56:25.847Z,21.50
2023-03-14T15:58:52.440Z,21.47
2023-03-14T16:01:18.868Z,21.49
2023-03-14T16:03:45.891Z,21.46
2023-03-14T16:06:12.536Z,21.42
2023-03-14T16:08:38.903Z,21.33
2023-03-14T16:11:06.017Z,21.49
2023-03-14T16:13:32.346Z,21.64
2023-03-14T16:15:59.357Z,21.74
2023-03-14T16:18:25.713Z,21.84
2023-03-14T16:20:52.662Z,21.90
2023-03-14T16:23:18.983Z,21.89
2023-03-14T16:25:45.313Z,21.92
2023-03-14T16:28:11.763Z,21.93
2023-03-14T16:30:38.103Z,21.95
2023-03-14T16:33:12.050Z,21.97
2023-03-14T16:35:39.281Z,22.02
2023-03-14T16:38:05.687Z,21.99
2023-03-14T16:40:32.147Z,21.96
2023-03-14T16:43:14.933Z,21.99
2023-03-14T16:45:42.242Z,22.02
2023-03-14T16:48:08.591Z,22.02
2023-03-14T16:50:34.935Z,22.05
2023-03-14T16:53:02.096Z,22.04
2023-03-14T16:55:28.495Z,22.00
2023-03-14T16:57:54.827Z,22.06
2023-03-14T17:00:22.231Z,22.10
2023-03-14T17:02:48.593Z,21.92
2023-03-14T17:05:14.950Z,21.67
2023-03-14T17:07:41.320Z,21.71
2023-03-14T17:10:07.702Z,21.62
2023-03-14T17:12:34.041Z,21.64
2023-03-14T17:15:00.452Z,21.70
2023-03-14T17:17:26.863Z,21.65
2023-03-14T17:19:53.269Z,21.63
2023-03-14T17:22:23.805Z,21.48
2023-03-14T17:24:51.043Z,21.51
2023-03-14T17:27:20.079Z,21.47
2023-03-14T17:29:49.698Z,21.42
2023-03-14T17:32:16.143Z,21.46
2023-03-14T17:34:42.492Z,21.54
2023-03-14T17:37:08.850Z,21.58
2023-03-14T17:39:35.281Z,21.56
2023-03-14T17:42:01.627Z,21.59
2023-03-14T17:44:28.022Z,21.54
2023-03-14T17:46:55.509Z,21.56
2023-03-14T17:49:21.868Z,21.57
2023-03-14T17:51:48.197Z,21.48
2023-03-14T17:54:14.539Z,21.52
2023-03-14T17:56:43.845Z,21.46
2023-03-14T17:59:10.930Z,21.45
2023-03-14T18:01:37.370Z,21.44
2023-03-14T18:04:03.855Z,21.49
2023-03-14T18:06:31.439Z,21.49
2023-03-14T18:08:58.443Z,21.32
2023-03-14T18:11:25.190Z,21.30
2023-03-14T18:13:51.595Z,21.39
2023-03-14T18:16:18.079Z,21.28
2023-03-14T18:18:47.067Z,21.20
2023-03-14T18:21:14.866Z,21.25
2023-03-14T18:23:41.422Z,21.26
2023-03-14T18:26:07.765Z,21.27
2023-03-14T18:28:34.092Z,21.24
2023-03-14T18:31:01.200Z,21.26
2023-03-14T18:33:27.572Z,21.23
2023-03-14T18:35:53.948Z,20.97
2023-03-14T18:38:20.317Z,19.49
2023-03-14T18:40:46.731Z,18.67
2023-03-14T18:43:13.075Z,18.91
2023-03-14T18:45:39.431Z,18.93
2023-03-14T18:48:05.835Z,18.63
2023-03-14T18:50:32.160Z,18.12
2023-03-14T18:53:01.740Z,19.29
2023-03-14T18:55:28.077Z,20.32
2023-03-14T18:57:54.396Z,20.62
2023-03-14T19:00:20.820Z,20.70
2023-03-14T19:02:47.125Z,20.78
2023-03-14T19:05:13.469Z,20.80
2023-03-14T19:07:39.782Z,20.64
2023-03-14T19:10:06.215Z,20.58
2023-03-14T19:12:32.585Z,20.51
2023-03-14T19:14:58.919Z,20.42
2023-03-14T19:17:25.278Z,20.44
2023-03-14T19:19:52.762Z,20.53
2023-03-14T19:22:19.100Z,20.62
2023-03-14T19:24:45.447Z,20.68
2023-03-14T19:27:11.894Z,20.77
2023-03-14T19:29:42.150Z,20.83
2023-03-14T19:32:09.366Z,20.99
2023-03-14T19:34:35.718Z,20.96
2023-03-14T19:37:02.082Z,20.92
2023-03-14T19:39:28.408Z,20.80
2023-03-14T19:41:58.043Z,20.87
2023-03-14T19:44:24.688Z,20.91
2023-03-14T19:46:51.000Z,20.98
2023-03-14T19:49:17.358Z,21.01
2023-03-14T19:51:43.720Z,21.02
2023-03-14T19:54:10.092Z,20.98
2023-03-14T19:56:38.071Z,20.96
2023-03-14T19:59:04.388Z,20.96
2023-03-14T20:01:31.535Z,20.83
2023-03-14T20:03:57.957Z,20.73
2023-03-14T20:06:24.286Z,20.85
2023-03-14T20:08:50.785Z,20.97
2023-03-14T20:11:17.290Z,21.00
2023-03-14T20:13:44.515Z,21.00
2023-03-14T20:16:10.934Z,20.93
2023-03-14T20:18:37.321Z,20.94
2023-03-14T20:21:07.283Z,20.87
2023-03-14T20:23:33.677Z,20.84
2023-03-14T20:26:00.077Z,20.81
2023-03-14T20:28:26.440Z,20.76
2023-03-14T20:30:52.915Z,20.82
2023-03-14T20:33:19.808Z,20.83
2023-03-14T20:35:46.569Z,20.86
2023-03-14T20:38:12.940Z,20.84
2023-03-14T20:40:39.367Z,20.86
2023-03-14T20:43:05.686Z,20.89
2023-03-14T20:45:32.035Z,20.87
2023-03-14T20:47:58.381Z,20.89
2023-03-14T20:50:24.753Z,20.88
2023-03-14T20:52:51.128Z,20.84
2023-03-14T20:55:17.540Z,20.75
2023-03-14T20:57:43.917Z,20.73
2023-03-14T21:00:10.445Z,20.74
2023-03-14T21:02:36.785Z,20.82
2023-03-14T21:05:03.519Z,20.81
2023-03-14T21:07:31.074Z,20.80
2023-03-14T21:09:57.390Z,20.76
2023-03-14T21:12:23.714Z,20.75
2023-03-14T21:14:50.040Z,20.75
2023-03-14T21:17:16.376Z,20.76
2023-03-14T21:19:45.562Z,20.81
2023-03-14T21:22:18.229Z,20.74
2023-03-14T21:24:45.117Z,20.70
2023-03-14T21:27:12.309Z,20.71
2023-03-14T21:29:38.643Z,20.73
2023-03-14T21:32:05.003Z,20.74
2023-03-14T21:34:31.324Z,20.74
2023-03-14T21:36:57.649Z,20.73
2023-03-14T21:39:23.979Z,20.71
2023-03-14T21:41:50.309Z,20.71
2023-03-14T21:44:18.938Z,20.73
2023-03-14T21:46:46.010Z,20.74
2023-03-14T21:49:15.230Z,20.74
2023-03-14T21:51:45.748Z,20.73
2023-03-14T21:54:15.405Z,20.72
2023-03-14T21:56:41.898Z,20.67
2023-03-14T21:59:08.266Z,20.64
2023-03-14T22:01:34.963Z,20.62
2023-03-14T22:04:01.309Z,20.59
2023-03-14T22:06:27.834Z,20.58
2023-03-14T22:08:55.296Z,20.56
2023-03-14T22:11:24.287Z,20.54
2023-03-14T22:13:50.627Z,20.53
2023-03-14T22:16:16.993Z,20.56
2023-03-14T22:18:43.335Z,20.55
2023-03-14T22:21:09.696Z,20.54
2023-03-14T22:23:36.024Z,20.54
2023-03-14T22:26:02.391Z,20.53
2023-03-14T22:28:28.767Z,20.49
2023-03-14T22:30:55.103Z,20.50
2023-03-14T22:33:21.837Z,20.50
2023-03-14T22:35:51.247Z,20.48
2023-03-14T22:38:17.580Z,20.47
2023-03-14T22:40:43.906Z,20.46
2023-03-14T22:43:10.244Z,20.45
2023-03-14T22:45:36.639Z,20.45
2023-03-14T22:48:03.012Z,20.44
2023-03-14T22:50:29.367Z,20.43
2023-03-14T22:52:58.196Z,20.43
2023-03-14T22:55:24.542Z,20.43
2023-03-14T22:57:51.627Z,20.42
2023-03-14T23:00:18.025Z,20.42
2023-03-14T23:02:44.759Z,20.41
2023-03-14T23:05:11.124Z,20.40
2023-03-14T23:07:37.481Z,20.39
2023-03-14T23:10:03.925Z,20.39
2023-03-14T23:12:30.274Z,20.39
2023-03-14T23:14:56.603Z,20.38
2023-03-14T23:17:25.433Z,20.36
2023-03-14T23:19:53.430Z,20.35
2023-03-14T23:22:19.764Z,20.31
2023-03-14T23:24:48.576Z,20.31
2023-03-14T23:27:15.711Z,20.29
2023-03-14T23:29:42.041Z,20.29
2023-03-14T23:32:08.373Z,20.31
2023-03-14T23:34:37.378Z,20.32
2023-03-14T23:37:04.935Z,20.34
2023-03-14T23:39:31.267Z,20.34
2023-03-14T23:41:57.584Z,20.36
2023-03-14T23:44:26.380Z,20.35
2023-03-14T23:46:53.188Z,20.35
2023-03-14T23:49:19.622Z,20.35
2023-03-14T23:51:45.954Z,20.34
2023-03-14T23:54:12.264Z,20.34
2023-03-14T23:56:40.435Z,20.34
2023-03-14T23:59:06.988Z,20.32
